sensor_id;sensor_type;location;lat;lon;timestamp;pressure;altitude;pressure_sealevel;temperature;humidity
76746;BME280;65671;49.976;20.038;2022-12-01T00:00:36;98913.50;;;-1.16;nan
76746;BME280;65671;49.976;20.038;2022-12-01T00:03:02;98912.00;;;-1.22;nan
76746;BME280;65671;49.976;20.038;2022-12-01T00:05:28;98914.66;;;-1.22;nan
76746;BME280;65671;49.976;20.038;2022-12-01T00:07:53;98920.09;;;-1.27;nan
76746;BME280;65671;49.976;20.038;2022-12-01T00:10:19;98915.28;;;-1.12;nan
76746;BME280;65671;49.976;20.038;2022-12-01T00:12:56;98915.59;;;-1.13;nan
76746;BME280;65671;49.976;20.038;2022-12-01T00:15:25;98919.41;;;-1.19;nan
76746;BME280;65671;49.976;20.038;2022-12-01T00:17:51;98914.09;;;-1.19;nan
76746;BME280;65671;49.976;20.038;2022-12-01T00:20:17;98920.38;;;-1.15;nan
76746;BME280;65671;49.976;20.038;2022-12-01T00:22:43;98914.88;;;-1.19;nan
76746;BME280;65671;49.976;20.038;2022-12-01T00:25:09;98915.06;;;-1.15;nan
76746;BME280;65671;49.976;20.038;2022-12-01T00:27:34;98912.22;;;-1.19;nan
76746;BME280;65671;49.976;20.038;2022-12-01T00:30:00;98923.13;;;-1.20;nan
76746;BME280;65671;49.976;20.038;2022-12-01T00:32:25;98929.25;;;-1.20;nan
76746;BME280;65671;49.976;20.038;2022-12-01T00:34:53;98922.28;;;-1.16;nan
76746;BME280;65671;49.976;20.038;2022-12-01T00:37:19;98926.00;;;-1.17;nan
76746;BME280;65671;49.976;20.038;2022-12-01T00:39:44;98922.84;;;-1.19;nan
76746;BME280;65671;49.976;20.038;2022-12-01T00:42:10;98922.56;;;-1.17;nan
76746;BME280;65671;49.976;20.038;2022-12-01T00:44:35;98923.13;;;-1.20;nan
76746;BME280;65671;49.976;20.038;2022-12-01T00:47:01;98925.50;;;-1.19;nan
76746;BME280;65671;49.976;20.038;2022-12-01T00:49:27;98925.78;;;-1.20;nan
76746;BME280;65671;49.976;20.038;2022-12-01T00:51:52;98930.63;;;-1.08;nan
76746;BME280;65671;49.976;20.038;2022-12-01T00:54:18;98928.78;;;-1.08;nan
76746;BME280;65671;49.976;20.038;2022-12-01T00:56:43;98925.09;;;-1.12;nan
76746;BME280;65671;49.976;20.038;2022-12-01T00:59:09;98922.34;;;-1.21;nan
76746;BME280;65671;49.976;20.038;2022-12-01T01:01:34;98920.69;;;-1.17;nan
76746;BME280;65671;49.976;20.038;2022-12-01T01:04:00;98923.56;;;-1.13;nan
76746;BME280;65671;49.976;20.038;2022-12-01T01:06:25;98918.25;;;-1.13;nan
76746;BME280;65671;49.976;20.038;2022-12-01T01:08:51;98910.75;;;-1.11;nan
76746;BME280;65671;49.976;20.038;2022-12-01T01:11:16;98903.47;;;-1.05;nan
76746;BME280;65671;49.976;20.038;2022-12-01T01:13:42;98903.47;;;-1.05;nan
76746;BME280;65671;49.976;20.038;2022-12-01T01:16:20;98910.06;;;-1.03;nan
76746;BME280;65671;49.976;20.038;2022-12-01T01:18:47;98889.22;;;-0.96;nan
76746;BME280;65671;49.976;20.038;2022-12-01T01:21:15;98889.13;;;-1.04;nan
76746;BME280;65671;49.976;20.038;2022-12-01T01:23:41;98895.81;;;-1.07;nan
76746;BME280;65671;49.976;20.038;2022-12-01T01:26:12;98885.97;;;-1.06;nan
76746;BME280;65671;49.976;20.038;2022-12-01T01:28:38;98897.19;;;-0.96;nan
76746;BME280;65671;49.976;20.038;2022-12-01T01:31:10;98890.13;;;-1.00;nan
76746;BME280;65671;49.976;20.038;2022-12-01T01:33:36;98882.41;;;-1.02;nan
76746;BME280;65671;49.976;20.038;2022-12-01T01:36:02;98883.50;;;-1.03;nan
76746;BME280;65671;49.976;20.038;2022-12-01T01:38:28;98884.38;;;-0.94;nan
76746;BME280;65671;49.976;20.038;2022-12-01T01:40:55;98895.59;;;-0.97;nan
76746;BME280;65671;49.976;20.038;2022-12-01T01:46:05;98892.47;;;-0.99;nan
76746;BME280;65671;49.976;20.038;2022-12-01T01:48:31;98896.13;;;-0.95;nan
76746;BME280;65671;49.976;20.038;2022-12-01T01:50:58;98897.00;;;-0.99;nan
76746;BME280;65671;49.976;20.038;2022-12-01T01:53:24;98893.75;;;-0.96;nan
76746;BME280;65671;49.976;20.038;2022-12-01T01:55:50;98888.63;;;-0.93;nan
76746;BME280;65671;49.976;20.038;2022-12-01T01:58:15;98888.16;;;-0.95;nan
76746;BME280;65671;49.976;20.038;2022-12-01T02:00:42;98892.88;;;-0.92;nan
76746;BME280;65671;49.976;20.038;2022-12-01T02:03:12;98880.56;;;-0.88;nan
76746;BME280;65671;49.976;20.038;2022-12-01T02:05:40;98886.47;;;-0.91;nan
76746;BME280;65671;49.976;20.038;2022-12-01T02:08:07;98882.41;;;-1.02;nan
76746;BME280;65671;49.976;20.038;2022-12-01T02:16:14;98883.00;;;-0.91;nan
76746;BME280;65671;49.976;20.038;2022-12-01T02:19:19;98890.22;;;-0.92;nan
76746;BME280;65671;49.976;20.038;2022-12-01T02:34:53;98877.69;;;-0.91;nan
76746;BME280;65671;49.976;20.038;2022-12-01T02:37:34;98881.44;;;-0.92;nan
76746;BME280;65671;49.976;20.038;2022-12-01T02:40:35;98883.53;;;-0.89;nan
76746;BME280;65671;49.976;20.038;2022-12-01T02:46:07;98868.06;;;-0.87;nan
76746;BME280;65671;49.976;20.038;2022-12-01T02:48:38;98873.28;;;-0.82;nan
76746;BME280;65671;49.976;20.038;2022-12-01T02:51:21;98880.84;;;-0.76;nan
76746;BME280;65671;49.976;20.038;2022-12-01T02:53:49;98871.41;;;-0.82;nan
76746;BME280;65671;49.976;20.038;2022-12-01T02:56:19;98881.44;;;-0.79;nan
76746;BME280;65671;49.976;20.038;2022-12-01T02:58:45;98870.53;;;-0.77;nan
76746;BME280;65671;49.976;20.038;2022-12-01T03:04:10;98875.75;;;-0.72;nan
76746;BME280;65671;49.976;20.038;2022-12-01T03:07:19;98864.69;;;-0.79;nan
76746;BME280;65671;49.976;20.038;2022-12-01T03:12:40;98876.63;;;-0.77;nan
76746;BME280;65671;49.976;20.038;2022-12-01T03:17:57;98866.88;;;-0.81;nan
76746;BME280;65671;49.976;20.038;2022-12-01T03:20:46;98874.06;;;-0.82;nan
76746;BME280;65671;49.976;20.038;2022-12-01T03:23:19;98865.28;;;-0.82;nan
76746;BME280;65671;49.976;20.038;2022-12-01T03:25:48;98867.88;;;-0.77;nan
76746;BME280;65671;49.976;20.038;2022-12-01T03:28:20;98868.25;;;-0.70;nan
76746;BME280;65671;49.976;20.038;2022-12-01T03:30:50;98857.41;;;-0.74;nan
76746;BME280;65671;49.976;20.038;2022-12-01T03:33:20;98849.63;;;-0.70;nan
76746;BME280;65671;49.976;20.038;2022-12-01T03:35:53;98857.34;;;-0.69;nan
76746;BME280;65671;49.976;20.038;2022-12-01T03:38:23;98850.91;;;-0.68;nan
76746;BME280;65671;49.976;20.038;2022-12-01T03:40:51;98850.16;;;-0.68;nan
76746;BME280;65671;49.976;20.038;2022-12-01T03:43:21;98848.25;;;-0.68;nan
76746;BME280;65671;49.976;20.038;2022-12-01T03:45:55;98845.91;;;-0.69;nan
76746;BME280;65671;49.976;20.038;2022-12-01T03:48:23;98841.38;;;-0.69;nan
76746;BME280;65671;49.976;20.038;2022-12-01T03:53:33;98842.44;;;-0.70;nan
76746;BME280;65671;49.976;20.038;2022-12-01T03:56:04;98846.59;;;-0.64;nan
76746;BME280;65671;49.976;20.038;2022-12-01T03:58:36;98842.25;;;-0.60;nan
76746;BME280;65671;49.976;20.038;2022-12-01T04:01:03;98837.22;;;-0.61;nan
76746;BME280;65671;49.976;20.038;2022-12-01T04:03:29;98837.53;;;-0.63;nan
76746;BME280;65671;49.976;20.038;2022-12-01T04:05:55;98847.84;;;-0.61;nan
76746;BME280;65671;49.976;20.038;2022-12-01T04:08:22;98839.28;;;-0.58;nan
76746;BME280;65671;49.976;20.038;2022-12-01T04:10:48;98836.34;;;-0.57;nan
76746;BME280;65671;49.976;20.038;2022-12-01T04:13:13;98838.31;;;-0.62;nan
76746;BME280;65671;49.976;20.038;2022-12-01T04:15:49;98836.34;;;-0.70;nan
76746;BME280;65671;49.976;20.038;2022-12-01T04:18:16;98823.72;;;-0.65;nan
76746;BME280;65671;49.976;20.038;2022-12-01T04:20:41;98829.72;;;-0.59;nan
76746;BME280;65671;49.976;20.038;2022-12-01T04:23:08;98828.38;;;-0.57;nan
76746;BME280;65671;49.976;20.038;2022-12-01T04:25:34;98828.84;;;-0.54;nan
76746;BME280;65671;49.976;20.038;2022-12-01T04:27:59;98825.50;;;-0.60;nan
76746;BME280;65671;49.976;20.038;2022-12-01T04:30:25;98829.44;;;-0.58;nan
76746;BME280;65671;49.976;20.038;2022-12-01T04:32:50;98824.91;;;-0.57;nan
76746;BME280;65671;49.976;20.038;2022-12-01T04:35:16;98835.16;;;-0.50;nan
76746;BME280;65671;49.976;20.038;2022-12-01T04:37:41;98825.88;;;-0.53;nan
76746;BME280;65671;49.976;20.038;2022-12-01T04:40:07;98833.75;;;-0.48;nan
76746;BME280;65671;49.976;20.038;2022-12-01T04:42:33;98836.22;;;-0.51;nan
76746;BME280;65671;49.976;20.038;2022-12-01T04:44:58;98835.91;;;-0.50;nan
76746;BME280;65671;49.976;20.038;2022-12-01T04:47:24;98835.75;;;-0.53;nan
76746;BME280;65671;49.976;20.038;2022-12-01T04:49:50;98838.28;;;-0.48;nan
76746;BME280;65671;49.976;20.038;2022-12-01T04:52:16;98839.44;;;-0.41;nan
76746;BME280;65671;49.976;20.038;2022-12-01T04:54:41;98839.09;;;-0.48;nan
76746;BME280;65671;49.976;20.038;2022-12-01T04:57:06;98840.25;;;-0.40;nan
76746;BME280;65671;49.976;20.038;2022-12-01T04:59:32;98839.88;;;-0.47;nan
76746;BME280;65671;49.976;20.038;2022-12-01T05:01:57;98838.78;;;-0.46;nan
76746;BME280;65671;49.976;20.038;2022-12-01T05:04:23;98840.84;;;-0.43;nan
76746;BME280;65671;49.976;20.038;2022-12-01T05:06:48;98843.03;;;-0.45;nan
76746;BME280;65671;49.976;20.038;2022-12-01T05:09:15;98850.69;;;-0.44;nan
76746;BME280;65671;49.976;20.038;2022-12-01T05:11:41;98846.34;;;-0.40;nan
76746;BME280;65671;49.976;20.038;2022-12-01T05:14:06;98842.41;;;-0.42;nan
76746;BME280;65671;49.976;20.038;2022-12-01T05:16:32;98844.78;;;-0.41;nan
76746;BME280;65671;49.976;20.038;2022-12-01T05:19:04;98846.44;;;-0.31;nan
76746;BME280;65671;49.976;20.038;2022-12-01T05:21:49;98848.91;;;-0.35;nan
76746;BME280;65671;49.976;20.038;2022-12-01T05:24:17;98851.88;;;-0.36;nan
76746;BME280;65671;49.976;20.038;2022-12-01T05:26:43;98847.75;;;-0.42;nan
76746;BME280;65671;49.976;20.038;2022-12-01T05:29:09;98844.28;;;-0.43;nan
76746;BME280;65671;49.976;20.038;2022-12-01T05:31:35;98845.69;;;-0.45;nan
76746;BME280;65671;49.976;20.038;2022-12-01T05:34:00;98854.03;;;-0.38;nan
76746;BME280;65671;49.976;20.038;2022-12-01T05:36:29;98855.59;;;-0.37;nan
76746;BME280;65671;49.976;20.038;2022-12-01T05:38:55;98854.22;;;-0.35;nan
76746;BME280;65671;49.976;20.038;2022-12-01T05:41:21;98853.34;;;-0.30;nan
76746;BME280;65671;49.976;20.038;2022-12-01T05:43:46;98857.19;;;-0.36;nan
76746;BME280;65671;49.976;20.038;2022-12-01T05:46:12;98861.72;;;-0.37;nan
76746;BME280;65671;49.976;20.038;2022-12-01T05:48:37;98865.66;;;-0.34;nan
76746;BME280;65671;49.976;20.038;2022-12-01T05:51:08;98866.25;;;-0.37;nan
76746;BME280;65671;49.976;20.038;2022-12-01T05:53:34;98865.16;;;-0.36;nan
76746;BME280;65671;49.976;20.038;2022-12-01T05:55:59;98859.34;;;-0.38;nan
76746;BME280;65671;49.976;20.038;2022-12-01T05:58:25;98861.25;;;-0.39;nan
76746;BME280;65671;49.976;20.038;2022-12-01T06:00:50;98867.84;;;-0.36;nan
76746;BME280;65671;49.976;20.038;2022-12-01T06:03:15;98868.50;;;-0.31;nan
76746;BME280;65671;49.976;20.038;2022-12-01T06:05:41;98875.69;;;-0.31;nan
76746;BME280;65671;49.976;20.038;2022-12-01T06:08:07;98876.19;;;-0.29;nan
76746;BME280;65671;49.976;20.038;2022-12-01T06:10:32;98871.44;;;-0.32;nan
76746;BME280;65671;49.976;20.038;2022-12-01T06:12:57;98874.31;;;-0.29;nan
76746;BME280;65671;49.976;20.038;2022-12-01T06:15:23;98887.13;;;-0.31;nan
76746;BME280;65671;49.976;20.038;2022-12-01T06:17:48;98880.44;;;-0.28;nan
76746;BME280;65671;49.976;20.038;2022-12-01T06:20:14;98884.66;;;-0.27;nan
76746;BME280;65671;49.976;20.038;2022-12-01T06:22:39;98882.22;;;-0.24;nan
76746;BME280;65671;49.976;20.038;2022-12-01T06:25:05;98876.97;;;-0.29;nan
76746;BME280;65671;49.976;20.038;2022-12-01T06:27:31;98879.94;;;-0.30;nan
76746;BME280;65671;49.976;20.038;2022-12-01T06:29:57;98880.91;;;-0.26;nan
76746;BME280;65671;49.976;20.038;2022-12-01T06:32:22;98875.09;;;-0.28;nan
76746;BME280;65671;49.976;20.038;2022-12-01T06:34:47;98876.09;;;-0.24;nan
76746;BME280;65671;49.976;20.038;2022-12-01T06:37:13;98876.09;;;-0.24;nan
76746;BME280;65671;49.976;20.038;2022-12-01T06:39:40;98879.16;;;-0.31;nan
76746;BME280;65671;49.976;20.038;2022-12-01T06:42:05;98883.56;;;-0.26;nan
76746;BME280;65671;49.976;20.038;2022-12-01T06:44:31;98877.47;;;-0.27;nan
76746;BME280;65671;49.976;20.038;2022-12-01T06:46:56;98883.09;;;-0.28;nan
76746;BME280;65671;49.976;20.038;2022-12-01T06:49:22;98883.28;;;-0.25;nan
76746;BME280;65671;49.976;20.038;2022-12-01T06:51:48;98870.25;;;-0.26;nan
76746;BME280;65671;49.976;20.038;2022-12-01T06:54:13;98877.97;;;-0.25;nan
76746;BME280;65671;49.976;20.038;2022-12-01T06:56:40;98878.84;;;-0.29;nan
76746;BME280;65671;49.976;20.038;2022-12-01T06:59:07;98883.09;;;-0.28;nan
76746;BME280;65671;49.976;20.038;2022-12-01T07:01:32;98875.50;;;-0.21;nan
76746;BME280;65671;49.976;20.038;2022-12-01T07:03:58;98870.56;;;-0.28;nan
76746;BME280;65671;49.976;20.038;2022-12-01T07:06:23;98886.13;;;-0.21;nan
76746;BME280;65671;49.976;20.038;2022-12-01T07:08:49;98879.63;;;-0.15;nan
76746;BME280;65671;49.976;20.038;2022-12-01T07:11:14;98876.28;;;-0.21;nan
76746;BME280;65671;49.976;20.038;2022-12-01T07:13:41;98880.22;;;-0.18;nan
76746;BME280;65671;49.976;20.038;2022-12-01T07:16:09;98886.13;;;-0.21;nan
76746;BME280;65671;49.976;20.038;2022-12-01T07:18:35;98877.06;;;-0.20;nan
76746;BME280;65671;49.976;20.038;2022-12-01T07:21:07;98880.22;;;-0.18;nan
76746;BME280;65671;49.976;20.038;2022-12-01T07:23:33;98879.13;;;-0.17;nan
76746;BME280;65671;49.976;20.038;2022-12-01T07:26:01;98875.66;;;-0.18;nan
76746;BME280;65671;49.976;20.038;2022-12-01T07:28:27;98878.22;;;-0.13;nan
76746;BME280;65671;49.976;20.038;2022-12-01T07:30:53;98880.91;;;-0.13;nan
76746;BME280;65671;49.976;20.038;2022-12-01T07:33:19;98876.97;;;-0.15;nan
76746;BME280;65671;49.976;20.038;2022-12-01T07:35:44;98876.84;;;-0.10;nan
76746;BME280;65671;49.976;20.038;2022-12-01T07:38:10;98879.03;;;-0.12;nan
76746;BME280;65671;49.976;20.038;2022-12-01T07:40:35;98881.69;;;-0.12;nan
76746;BME280;65671;49.976;20.038;2022-12-01T07:43:00;98879.50;;;-0.10;nan
76746;BME280;65671;49.976;20.038;2022-12-01T07:45:26;98878.59;;;-0.06;nan
76746;BME280;65671;49.976;20.038;2022-12-01T07:47:52;98878.44;;;-0.09;nan
76746;BME280;65671;49.976;20.038;2022-12-01T07:50:18;98883.16;;;-0.06;nan
76746;BME280;65671;49.976;20.038;2022-12-01T07:52:44;98882.75;;;-0.13;nan
76746;BME280;65671;49.976;20.038;2022-12-01T07:55:13;98880.78;;;-0.08;nan
76746;BME280;65671;49.976;20.038;2022-12-01T07:57:38;98881.09;;;-0.09;nan
76746;BME280;65671;49.976;20.038;2022-12-01T08:00:04;98887.69;;;-0.07;nan
76746;BME280;65671;49.976;20.038;2022-12-01T08:02:30;98882.34;;;-0.07;nan
76746;BME280;65671;49.976;20.038;2022-12-01T08:04:55;98879.69;;;-0.07;nan
76746;BME280;65671;49.976;20.038;2022-12-01T08:07:20;98888.84;;;0.01;nan
76746;BME280;65671;49.976;20.038;2022-12-01T08:09:46;98882.72;;;0.00;nan
76746;BME280;65671;49.976;20.038;2022-12-01T08:12:11;98885.69;;;-0.01;nan
76746;BME280;65671;49.976;20.038;2022-12-01T08:14:37;98885.38;;;0.00;nan
76746;BME280;65671;49.976;20.038;2022-12-01T08:17:02;98887.63;;;0.07;nan
76746;BME280;65671;49.976;20.038;2022-12-01T08:19:28;98881.97;;;0.00;nan
76746;BME280;65671;49.976;20.038;2022-12-01T08:21:53;98885.22;;;-0.03;nan
76746;BME280;65671;49.976;20.038;2022-12-01T08:24:18;98890.22;;;-0.02;nan
76746;BME280;65671;49.976;20.038;2022-12-01T08:26:44;98895.16;;;0.05;nan
76746;BME280;65671;49.976;20.038;2022-12-01T08:29:09;98890.41;;;0.02;nan
76746;BME280;65671;49.976;20.038;2022-12-01T08:31:35;98896.34;;;-0.01;nan
76746;BME280;65671;49.976;20.038;2022-12-01T08:34:05;98894.53;;;0.08;nan
76746;BME280;65671;49.976;20.038;2022-12-01T08:36:31;98892.16;;;0.07;nan
76746;BME280;65671;49.976;20.038;2022-12-01T08:38:57;98897.72;;;-0.04;nan
76746;BME280;65671;49.976;20.038;2022-12-01T08:41:23;98901.28;;;-0.08;nan
76746;BME280;65671;49.976;20.038;2022-12-01T08:43:49;98904.81;;;0.01;nan
76746;BME280;65671;49.976;20.038;2022-12-01T08:46:15;98901.06;;;0.02;nan
76746;BME280;65671;49.976;20.038;2022-12-01T08:48:40;98896.94;;;-0.04;nan
76746;BME280;65671;49.976;20.038;2022-12-01T08:51:15;98901.19;;;-0.03;nan
76746;BME280;65671;49.976;20.038;2022-12-01T08:53:44;98909.06;;;0.02;nan
76746;BME280;65671;49.976;20.038;2022-12-01T08:56:16;98914.44;;;0.11;nan
76746;BME280;65671;49.976;20.038;2022-12-01T08:58:42;98914.84;;;0.04;nan
76746;BME280;65671;49.976;20.038;2022-12-01T09:01:10;98912.66;;;0.06;nan
76746;BME280;65671;49.976;20.038;2022-12-01T09:03:37;98913.06;;;0.13;nan
76746;BME280;65671;49.976;20.038;2022-12-01T09:06:11;98903.59;;;0.07;nan
76746;BME280;65671;49.976;20.038;2022-12-01T09:08:37;98904.81;;;0.01;nan
76746;BME280;65671;49.976;20.038;2022-12-01T09:11:11;98900.47;;;0.05;nan
76746;BME280;65671;49.976;20.038;2022-12-01T09:13:38;98907.19;;;0.03;nan
76746;BME280;65671;49.976;20.038;2022-12-01T09:16:06;98901.06;;;0.02;nan
76746;BME280;65671;49.976;20.038;2022-12-01T09:18:32;98902.34;;;0.05;nan
76746;BME280;65671;49.976;20.038;2022-12-01T09:20:58;98898.09;;;0.04;nan
76746;BME280;65671;49.976;20.038;2022-12-01T09:23:24;98901.44;;;0.09;nan
76746;BME280;65671;49.976;20.038;2022-12-01T09:25:51;98894.41;;;0.13;nan
76746;BME280;65671;49.976;20.038;2022-12-01T09:28:17;98884.44;;;0.19;nan
76746;BME280;65671;49.976;20.038;2022-12-01T09:30:43;98886.31;;;0.18;nan
76746;BME280;65671;49.976;20.038;2022-12-01T09:33:09;98890.25;;;0.21;nan
76746;BME280;65671;49.976;20.038;2022-12-01T09:35:34;98897.09;;;0.13;nan
76746;BME280;65671;49.976;20.038;2022-12-01T09:38:00;98888.31;;;0.13;nan
76746;BME280;65671;49.976;20.038;2022-12-01T09:40:35;98890.69;;;0.14;nan
76746;BME280;65671;49.976;20.038;2022-12-01T09:43:03;98864.41;;;-0.01;nan
76746;BME280;65671;49.976;20.038;2022-12-01T09:45:33;98880.97;;;0.18;nan
76746;BME280;65671;49.976;20.038;2022-12-01T09:48:02;98882.88;;;0.18;nan
76746;BME280;65671;49.976;20.038;2022-12-01T09:50:29;98876.56;;;0.14;nan
76746;BME280;65671;49.976;20.038;2022-12-01T09:53:17;98885.59;;;0.26;nan
76746;BME280;65671;49.976;20.038;2022-12-01T09:55:44;98881.00;;;0.40;nan
76746;BME280;65671;49.976;20.038;2022-12-01T09:58:17;98873.78;;;0.19;nan
76746;BME280;65671;49.976;20.038;2022-12-01T10:00:42;98876.75;;;0.17;nan
76746;BME280;65671;49.976;20.038;2022-12-01T10:03:29;98876.28;;;0.37;nan
76746;BME280;65671;49.976;20.038;2022-12-01T10:06:02;98876.47;;;0.41;nan
76746;BME280;65671;49.976;20.038;2022-12-01T10:08:32;98869.00;;;0.51;nan
76746;BME280;65671;49.976;20.038;2022-12-01T10:11:38;98875.69;;;0.40;nan
76746;BME280;65671;49.976;20.038;2022-12-01T10:14:09;98868.53;;;0.27;nan
76746;BME280;65671;49.976;20.038;2022-12-01T10:16:49;98873.00;;;0.18;nan
76746;BME280;65671;49.976;20.038;2022-12-01T10:19:38;98869.66;;;0.13;nan
76746;BME280;65671;49.976;20.038;2022-12-01T10:22:23;98874.69;;;0.14;nan
76746;BME280;65671;49.976;20.038;2022-12-01T10:24:52;98873.78;;;0.19;nan
76746;BME280;65671;49.976;20.038;2022-12-01T10:30:11;98865.31;;;0.17;nan
76746;BME280;65671;49.976;20.038;2022-12-01T10:35:19;98866.84;;;0.31;nan
76746;BME280;65671;49.976;20.038;2022-12-01T10:37:45;98867.66;;;0.18;nan
76746;BME280;65671;49.976;20.038;2022-12-01T10:40:15;98852.06;;;0.25;nan
76746;BME280;65671;49.976;20.038;2022-12-01T10:42:50;98853.66;;;0.26;nan
76746;BME280;65671;49.976;20.038;2022-12-01T10:45:20;98854.00;;;0.33;nan
76746;BME280;65671;49.976;20.038;2022-12-01T10:48:18;98847.75;;;0.16;nan
76746;BME280;65671;49.976;20.038;2022-12-01T10:50:45;98844.81;;;0.17;nan
76746;BME280;65671;49.976;20.038;2022-12-01T10:53:40;98842.16;;;0.17;nan
76746;BME280;65671;49.976;20.038;2022-12-01T10:56:13;98851.94;;;0.08;nan
76746;BME280;65671;49.976;20.038;2022-12-01T10:58:57;98836.91;;;0.12;nan
76746;BME280;65671;49.976;20.038;2022-12-01T11:01:30;98840.06;;;0.36;nan
76746;BME280;65671;49.976;20.038;2022-12-01T11:09:18;98837.22;;;0.33;nan
76746;BME280;65671;49.976;20.038;2022-12-01T11:11:44;98832.63;;;0.25;nan
76746;BME280;65671;49.976;20.038;2022-12-01T11:14:22;98833.66;;;0.15;nan
76746;BME280;65671;49.976;20.038;2022-12-01T11:16:50;98826.72;;;0.06;nan
76746;BME280;65671;49.976;20.038;2022-12-01T11:19:31;98829.00;;;0.21;nan
76746;BME280;65671;49.976;20.038;2022-12-01T11:21:59;98829.84;;;0.30;nan
76746;BME280;65671;49.976;20.038;2022-12-01T11:24:37;98828.16;;;0.34;nan
76746;BME280;65671;49.976;20.038;2022-12-01T11:27:03;98829.06;;;0.29;nan
76746;BME280;65671;49.976;20.038;2022-12-01T11:29:38;98830.38;;;0.18;nan
76746;BME280;65671;49.976;20.038;2022-12-01T11:32:37;98832.94;;;0.23;nan
76746;BME280;65671;49.976;20.038;2022-12-01T11:37:46;98824.03;;;0.28;nan
76746;BME280;65671;49.976;20.038;2022-12-01T11:40:20;98825.41;;;0.03;nan
76746;BME280;65671;49.976;20.038;2022-12-01T11:42:52;98829.19;;;0.24;nan
76746;BME280;65671;49.976;20.038;2022-12-01T11:50:31;98832.19;;;0.09;nan
76746;BME280;65671;49.976;20.038;2022-12-01T11:52:57;98832.63;;;0.25;nan
76746;BME280;65671;49.976;20.038;2022-12-01T11:55:24;98838.13;;;0.06;nan
76746;BME280;65671;49.976;20.038;2022-12-01T11:57:52;98829.66;;;0.04;nan
76746;BME280;65671;49.976;20.038;2022-12-01T12:00:24;98823.53;;;0.04;nan
76746;BME280;65671;49.976;20.038;2022-12-01T12:03:17;98830.69;;;0.39;nan
76746;BME280;65671;49.976;20.038;2022-12-01T12:21:33;98831.72;;;0.07;88.02
76746;BME280;65671;49.976;20.038;2022-12-01T12:35:01;98835.66;;;0.32;85.39
76746;BME280;65671;49.976;20.038;2022-12-01T12:39:57;98829.31;;;0.72;84.14
76746;BME280;65671;49.976;20.038;2022-12-01T12:42:31;98824.91;;;0.15;86.10
76746;BME280;65671;49.976;20.038;2022-12-01T12:50:49;98825.81;;;0.32;85.80
76746;BME280;65671;49.976;20.038;2022-12-01T12:53:20;98818.50;;;-0.20;87.25
76746;BME280;65671;49.976;20.038;2022-12-01T12:55:53;98831.53;;;-0.19;87.23
76746;BME280;65671;49.976;20.038;2022-12-01T12:58:35;98824.81;;;-0.16;88.68
76746;BME280;65671;49.976;20.038;2022-12-01T13:01:20;98835.56;;;-0.21;88.09
76746;BME280;65671;49.976;20.038;2022-12-01T13:03:59;98827.91;;;-0.01;87.53
76746;BME280;65671;49.976;20.038;2022-12-01T13:06:39;98824.63;;;-0.20;87.36
76746;BME280;65671;49.976;20.038;2022-12-01T13:09:26;98822.53;;;-0.09;86.94
76746;BME280;65671;49.976;20.038;2022-12-01T13:12:04;98833.50;;;0.12;87.14
76746;BME280;65671;49.976;20.038;2022-12-01T13:14:40;98824.34;;;0.79;84.03
76746;BME280;65671;49.976;20.038;2022-12-01T13:17:34;98828.00;;;0.61;84.32
76746;BME280;65671;49.976;20.038;2022-12-01T13:20:03;98838.59;;;1.14;81.77
76746;BME280;65671;49.976;20.038;2022-12-01T13:22:31;98827.84;;;0.13;84.73
76746;BME280;65671;49.976;20.038;2022-12-01T13:24:59;98829.91;;;-0.06;86.29
76746;BME280;65671;49.976;20.038;2022-12-01T13:27:27;98826.19;;;-0.19;87.76
76746;BME280;65671;49.976;20.038;2022-12-01T13:29:56;98829.06;;;-0.15;87.39
76746;BME280;65671;49.976;20.038;2022-12-01T13:34:50;98825.34;;;0.39;85.58
76746;BME280;65671;49.976;20.038;2022-12-01T13:37:28;98825.81;;;0.94;82.39
76746;BME280;65671;49.976;20.038;2022-12-01T13:39:54;98832.31;;;0.04;85.63
76746;BME280;65671;49.976;20.038;2022-12-01T13:42:30;98834.06;;;-0.14;87.74
76746;BME280;65671;49.976;20.038;2022-12-01T13:45:09;98833.00;;;-0.13;87.20
76746;BME280;65671;49.976;20.038;2022-12-01T14:06:45;98841.50;;;-0.24;86.82
76746;BME280;65671;49.976;20.038;2022-12-01T14:11:38;98834.31;;;-0.24;86.19
76746;BME280;65671;49.976;20.038;2022-12-01T14:14:18;98830.41;;;-0.18;87.54
76746;BME280;65671;49.976;20.038;2022-12-01T14:16:52;98840.97;;;-0.13;86.56
76746;BME280;65671;49.976;20.038;2022-12-01T14:19:46;98834.38;;;-0.15;87.33
76746;BME280;65671;49.976;20.038;2022-12-01T14:22:37;98834.34;;;0.74;84.36
76746;BME280;65671;49.976;20.038;2022-12-01T14:25:27;98831.38;;;0.00;86.66
76746;BME280;65671;49.976;20.038;2022-12-01T14:27:54;98834.00;;;-0.22;86.83
76746;BME280;65671;49.976;20.038;2022-12-01T14:38:53;98833.34;;;0.61;81.82
76746;BME280;65671;49.976;20.038;2022-12-01T14:41:30;98827.03;;;0.88;81.99
76746;BME280;65671;49.976;20.038;2022-12-01T14:44:19;98829.25;;;0.11;84.46
76746;BME280;65671;49.976;20.038;2022-12-01T14:46:57;98830.84;;;0.12;84.50
76746;BME280;65671;49.976;20.038;2022-12-01T14:49:54;98824.47;;;0.21;83.61
76746;BME280;65671;49.976;20.038;2022-12-01T14:52:35;98830.31;;;0.54;82.73
76746;BME280;65671;49.976;20.038;2022-12-01T14:55:29;98833.66;;;-0.07;84.83
76746;BME280;65671;49.976;20.038;2022-12-01T14:58:11;98829.22;;;-0.12;85.49
76746;BME280;65671;49.976;20.038;2022-12-01T15:00:52;98827.53;;;-0.08;85.34
76746;BME280;65671;49.976;20.038;2022-12-01T15:03:21;98829.91;;;-0.06;85.32
76746;BME280;65671;49.976;20.038;2022-12-01T15:05:47;98832.13;;;0.00;85.01
76746;BME280;65671;49.976;20.038;2022-12-01T15:08:24;98831.00;;;-0.07;86.40
76746;BME280;65671;49.976;20.038;2022-12-01T15:10:53;98826.16;;;0.17;84.89
76746;BME280;65671;49.976;20.038;2022-12-01T15:15:54;98830.25;;;0.01;85.39
76746;BME280;65671;49.976;20.038;2022-12-01T15:18:29;98826.41;;;0.07;84.72
76746;BME280;65671;49.976;20.038;2022-12-01T15:21:14;98823.78;;;0.69;82.63
76746;BME280;65671;49.976;20.038;2022-12-01T15:24:02;98827.53;;;1.55;77.21
76746;BME280;65671;49.976;20.038;2022-12-01T15:26:33;98826.53;;;0.02;84.61
76746;BME280;65671;49.976;20.038;2022-12-01T15:29:14;98829.94;;;-0.20;84.47